sensor_id;sensor_type;location;lat;lon;timestamp;pressure;altitude;pressure_sealevel;temperature;humidity
38806;BME280;25635;51.146;17.162;2024-03-06T00:00:28;100427.55;;;3.79;87.85
38806;BME280;25635;51.146;17.162;2024-03-06T00:03:23;100429.48;;;3.81;87.83
38806;BME280;25635;51.146;17.162;2024-03-06T00:06:09;100427.05;;;3.81;87.81
38806;BME280;25635;51.146;17.162;2024-03-06T00:08:47;100431.69;;;3.79;87.90
38806;BME280;25635;51.146;17.162;2024-03-06T00:11:23;100429.61;;;3.79;88.01
38806;BME280;25635;51.146;17.162;2024-03-06T00:14:13;100428.35;;;3.77;87.91
38806;BME280;25635;51.146;17.162;2024-03-06T00:17:02;100428.80;;;3.74;87.96
38806;BME280;25635;51.146;17.162;2024-03-06T00:19:49;100426.86;;;3.72;88.04
38806;BME280;25635;51.146;17.162;2024-03-06T00:22:36;100433.79;;;3.73;88.03
38806;BME280;25635;51.146;17.162;2024-03-06T00:25:22;100433.96;;;3.74;88.03
38806;BME280;25635;51.146;17.162;2024-03-06T00:28:08;100436.42;;;3.75;88.11
38806;BME280;25635;51.146;17.162;2024-03-06T00:30:55;100439.77;;;3.78;88.16
38806;BME280;25635;51.146;17.162;2024-03-06T00:33:41;100437.59;;;3.81;88.18
38806;BME280;25635;51.146;17.162;2024-03-06T00:36:34;100439.85;;;3.82;88.04
38806;BME280;25635;51.146;17.162;2024-03-06T00:39:00;100433.32;;;3.83;88.04
38806;BME280;25635;51.146;17.162;2024-03-06T00:41:46;100433.80;;;3.81;88.14
38806;BME280;25635;51.146;17.162;2024-03-06T00:44:32;100437.35;;;3.79;88.03
38806;BME280;25635;51.146;17.162;2024-03-06T00:47:18;100435.20;;;3.75;88.15
38806;BME280;25635;51.146;17.162;2024-03-06T00:50:10;100438.96;;;3.73;88.07
38806;BME280;25635;51.146;17.162;2024-03-06T00:53:05;100439.63;;;3.73;88.22
38806;BME280;25635;51.146;17.162;2024-03-06T00:55:52;100438.84;;;3.75;88.27
38806;BME280;25635;51.146;17.162;2024-03-06T00:58:38;100441.84;;;3.79;88.29
38806;BME280;25635;51.146;17.162;2024-03-06T01:01:28;100447.38;;;3.80;88.10
38806;BME280;25635;51.146;17.162;2024-03-06T01:04:14;100447.20;;;3.79;88.10
38806;BME280;25635;51.146;17.162;2024-03-06T01:07:00;100447.52;;;3.78;88.14
38806;BME280;25635;51.146;17.162;2024-03-06T01:09:46;100448.45;;;3.74;88.17
38806;BME280;25635;51.146;17.162;2024-03-06T01:12:33;100448.39;;;3.71;88.18
38806;BME280;25635;51.146;17.162;2024-03-06T01:15:19;100446.91;;;3.67;88.14
38806;BME280;25635;51.146;17.162;2024-03-06T01:18:05;100448.42;;;3.65;88.23
38806;BME280;25635;51.146;17.162;2024-03-06T01:20:51;100450.48;;;3.65;88.44
38806;BME280;25635;51.146;17.162;2024-03-06T01:23:37;100453.77;;;3.65;88.10
38806;BME280;25635;51.146;17.162;2024-03-06T01:26:23;100457.23;;;3.65;88.07
38806;BME280;25635;51.146;17.162;2024-03-06T01:29:06;100454.34;;;3.67;88.05
38806;BME280;25635;51.146;17.162;2024-03-06T01:32:01;100461.66;;;3.71;88.12
38806;BME280;25635;51.146;17.162;2024-03-06T01:34:47;100461.34;;;3.72;88.00
38806;BME280;25635;51.146;17.162;2024-03-06T01:37:33;100465.53;;;3.74;88.11
38806;BME280;25635;51.146;17.162;2024-03-06T01:40:19;100467.04;;;3.72;87.92
38806;BME280;25635;51.146;17.162;2024-03-06T01:43:05;100471.41;;;3.67;87.88
38806;BME280;25635;51.146;17.162;2024-03-06T01:45:52;100468.15;;;3.61;87.91
38806;BME280;25635;51.146;17.162;2024-03-06T01:48:39;100471.76;;;3.53;88.02
38806;BME280;25635;51.146;17.162;2024-03-06T01:51:33;100472.62;;;3.46;88.01
38806;BME280;25635;51.146;17.162;2024-03-06T01:54:26;100473.90;;;3.42;87.95
38806;BME280;25635;51.146;17.162;2024-03-06T01:57:15;100471.89;;;3.38;87.95
38806;BME280;25635;51.146;17.162;2024-03-06T02:00:02;100468.00;;;3.34;87.78
38806;BME280;25635;51.146;17.162;2024-03-06T02:02:48;100473.45;;;3.32;87.83
38806;BME280;25635;51.146;17.162;2024-03-06T02:05:14;100470.25;;;3.28;87.91
38806;BME280;25635;51.146;17.162;2024-03-06T02:08:00;100470.15;;;3.24;87.64
38806;BME280;25635;51.146;17.162;2024-03-06T02:11:05;100470.35;;;3.18;87.69
38806;BME280;25635;51.146;17.162;2024-03-06T02:13:51;100467.55;;;3.10;87.72
38806;BME280;25635;51.146;17.162;2024-03-06T02:16:38;100467.38;;;3.04;87.77
38806;BME280;25635;51.146;17.162;2024-03-06T02:19:41;100471.66;;;2.96;87.68
38806;BME280;25635;51.146;17.162;2024-03-06T02:22:27;100470.23;;;2.88;87.76
38806;BME280;25635;51.146;17.162;2024-03-06T02:25:13;100469.29;;;2.79;87.64
38806;BME280;25635;51.146;17.162;2024-03-06T02:27:59;100470.47;;;2.72;87.54
38806;BME280;25635;51.146;17.162;2024-03-06T02:30:43;100471.29;;;2.64;87.46
38806;BME280;25635;51.146;17.162;2024-03-06T02:33:29;100475.71;;;2.57;87.53
38806;BME280;25635;51.146;17.162;2024-03-06T02:36:17;100475.64;;;2.48;87.64
38806;BME280;25635;51.146;17.162;2024-03-06T02:39:03;100475.38;;;2.39;87.61
38806;BME280;25635;51.146;17.162;2024-03-06T02:41:49;100477.55;;;2.31;87.59
38806;BME280;25635;51.146;17.162;2024-03-06T02:44:35;100472.42;;;2.21;87.69
38806;BME280;25635;51.146;17.162;2024-03-06T02:47:21;100476.08;;;2.11;87.65
38806;BME280;25635;51.146;17.162;2024-03-06T02:49:47;100480.05;;;2.00;87.59
38806;BME280;25635;51.146;17.162;2024-03-06T02:52:34;100480.84;;;1.87;87.73
38806;BME280;25635;51.146;17.162;2024-03-06T02:55:28;100482.72;;;1.75;87.87
38806;BME280;25635;51.146;17.162;2024-03-06T02:58:19;100486.00;;;1.66;88.07
38806;BME280;25635;51.146;17.162;2024-03-06T03:01:06;100483.79;;;1.55;88.11
38806;BME280;25635;51.146;17.162;2024-03-06T03:03:53;100485.96;;;1.43;87.98
38806;BME280;25635;51.146;17.162;2024-03-06T03:06:44;100490.65;;;1.34;88.22
38806;BME280;25635;51.146;17.162;2024-03-06T03:09:36;100493.27;;;1.31;88.33
38806;BME280;25635;51.146;17.162;2024-03-06T03:12:02;100496.17;;;1.25;88.26
38806;BME280;25635;51.146;17.162;2024-03-06T03:14:48;100498.23;;;1.19;88.24
38806;BME280;25635;51.146;17.162;2024-03-06T03:17:35;100500.02;;;1.17;88.40
38806;BME280;25635;51.146;17.162;2024-03-06T03:20:21;100499.84;;;1.12;88.18
38806;BME280;25635;51.146;17.162;2024-03-06T03:23:28;100500.42;;;1.04;88.44
38806;BME280;25635;51.146;17.162;2024-03-06T03:26:18;100500.58;;;0.98;88.65
38806;BME280;25635;51.146;17.162;2024-03-06T03:28:44;100500.39;;;0.93;88.54
38806;BME280;25635;51.146;17.162;2024-03-06T03:31:30;100502.77;;;0.83;88.41
38806;BME280;25635;51.146;17.162;2024-03-06T03:34:16;100507.70;;;0.77;88.56
38806;BME280;25635;51.146;17.162;2024-03-06T03:37:02;100512.39;;;0.74;88.82
38806;BME280;25635;51.146;17.162;2024-03-06T03:39:48;100517.79;;;0.71;88.74
38806;BME280;25635;51.146;17.162;2024-03-06T03:42:34;100518.98;;;0.67;88.66
38806;BME280;25635;51.146;17.162;2024-03-06T03:45:20;100517.75;;;0.61;88.95
38806;BME280;25635;51.146;17.162;2024-03-06T03:48:12;100520.45;;;0.59;88.85
38806;BME280;25635;51.146;17.162;2024-03-06T03:50:38;100524.21;;;0.59;89.09
38806;BME280;25635;51.146;17.162;2024-03-06T03:53:24;100523.53;;;0.59;88.92
38806;BME280;25635;51.146;17.162;2024-03-06T03:56:10;100529.91;;;0.56;88.91
38806;BME280;25635;51.146;17.162;2024-03-06T03:58:57;100530.02;;;0.49;88.76
38806;BME280;25635;51.146;17.162;2024-03-06T04:01:46;100528.19;;;0.42;88.88
38806;BME280;25635;51.146;17.162;2024-03-06T04:04:32;100527.38;;;0.38;88.93
38806;BME280;25635;51.146;17.162;2024-03-06T04:07:18;100526.20;;;0.30;88.70
38806;BME280;25635;51.146;17.162;2024-03-06T04:10:06;100527.67;;;0.20;88.78
38806;BME280;25635;51.146;17.162;2024-03-06T04:12:52;100528.91;;;0.12;88.98
38806;BME280;25635;51.146;17.162;2024-03-06T04:15:38;100532.89;;;0.08;89.12
38806;BME280;25635;51.146;17.162;2024-03-06T04:18:24;100536.01;;;0.05;89.33
38806;BME280;25635;51.146;17.162;2024-03-06T04:21:10;100533.66;;;0.06;89.47
38806;BME280;25635;51.146;17.162;2024-03-06T04:23:56;100536.11;;;0.07;89.65
38806;BME280;25635;51.146;17.162;2024-03-06T04:26:43;100536.57;;;0.06;89.70
38806;BME280;25635;51.146;17.162;2024-03-06T04:29:09;100536.20;;;0.05;89.87
38806;BME280;25635;51.146;17.162;2024-03-06T04:32:06;100540.30;;;0.05;90.01
38806;BME280;25635;51.146;17.162;2024-03-06T04:34:57;100543.91;;;0.05;89.58
38806;BME280;25635;51.146;17.162;2024-03-06T04:37:45;100547.40;;;0.02;89.60
38806;BME280;25635;51.146;17.162;2024-03-06T04:40:11;100551.17;;;-0.02;89.59
38806;BME280;25635;51.146;17.162;2024-03-06T04:43:03;100551.08;;;-0.09;89.31
38806;BME280;25635;51.146;17.162;2024-03-06T04:45:49;100555.85;;;-0.13;89.71
38806;BME280;25635;51.146;17.162;2024-03-06T04:48:36;100557.00;;;-0.14;89.78
38806;BME280;25635;51.146;17.162;2024-03-06T04:51:23;100552.91;;;-0.18;89.90
38806;BME280;25635;51.146;17.162;2024-03-06T04:54:14;100560.95;;;-0.23;89.93
38806;BME280;25635;51.146;17.162;2024-03-06T04:57:05;100565.63;;;-0.26;90.18
38806;BME280;25635;51.146;17.162;2024-03-06T04:59:51;100567.99;;;-0.27;89.87
38806;BME280;25635;51.146;17.162;2024-03-06T05:02:38;100574.59;;;-0.25;89.84
38806;BME280;25635;51.146;17.162;2024-03-06T05:05:48;100577.59;;;-0.27;89.78
38806;BME280;25635;51.146;17.162;2024-03-06T05:08:15;100581.66;;;-0.28;89.83
38806;BME280;25635;51.146;17.162;2024-03-06T05:11:04;100579.27;;;-0.35;89.94
38806;BME280;25635;51.146;17.162;2024-03-06T05:13:31;100585.63;;;-0.43;89.98
38806;BME280;25635;51.146;17.162;2024-03-06T05:16:17;100586.82;;;-0.47;90.11
38806;BME280;25635;51.146;17.162;2024-03-06T05:19:04;100586.52;;;-0.47;90.25
38806;BME280;25635;51.146;17.162;2024-03-06T05:21:49;100586.40;;;-0.49;90.58
38806;BME280;25635;51.146;17.162;2024-03-06T05:24:39;100586.80;;;-0.48;90.66
38806;BME280;25635;51.146;17.162;2024-03-06T05:27:25;100589.17;;;-0.48;90.34
38806;BME280;25635;51.146;17.162;2024-03-06T05:30:13;100590.72;;;-0.48;90.51
38806;BME280;25635;51.146;17.162;2024-03-06T05:32:59;100591.54;;;-0.49;90.56
38806;BME280;25635;51.146;17.162;2024-03-06T05:35:45;100594.19;;;-0.52;90.99
38806;BME280;25635;51.146;17.162;2024-03-06T05:38:36;100597.70;;;-0.53;90.99
38806;BME280;25635;51.146;17.162;2024-03-06T05:41:11;100598.03;;;-0.54;90.79
38806;BME280;25635;51.146;17.162;2024-03-06T05:43:56;100594.83;;;-0.57;91.03
38806;BME280;25635;51.146;17.162;2024-03-06T05:46:23;100596.56;;;-0.60;90.98
38806;BME280;25635;51.146;17.162;2024-03-06T05:49:09;100598.64;;;-0.64;91.46
38806;BME280;25635;51.146;17.162;2024-03-06T05:51:55;100600.10;;;-0.65;91.58
38806;BME280;25635;51.146;17.162;2024-03-06T05:55:00;100604.12;;;-0.64;91.54
38806;BME280;25635;51.146;17.162;2024-03-06T05:57:46;100601.25;;;-0.63;91.98
38806;BME280;25635;51.146;17.162;2024-03-06T06:00:32;100603.27;;;-0.59;92.22
38806;BME280;25635;51.146;17.162;2024-03-06T06:03:18;100610.21;;;-0.53;92.29
38806;BME280;25635;51.146;17.162;2024-03-06T06:06:04;100612.51;;;-0.48;92.26
38806;BME280;25635;51.146;17.162;2024-03-06T06:08:57;100615.13;;;-0.42;92.36
38806;BME280;25635;51.146;17.162;2024-03-06T06:11:43;100613.18;;;-0.36;92.46
38806;BME280;25635;51.146;17.162;2024-03-06T06:14:29;100616.27;;;-0.28;92.48
38806;BME280;25635;51.146;17.162;2024-03-06T06:17:15;100619.16;;;-0.20;92.63
38806;BME280;25635;51.146;17.162;2024-03-06T06:20:02;100622.85;;;-0.14;92.49
38806;BME280;25635;51.146;17.162;2024-03-06T06:22:48;100625.64;;;-0.09;92.73
38806;BME280;25635;51.146;17.162;2024-03-06T06:25:43;100631.09;;;-0.05;92.74
38806;BME280;25635;51.146;17.162;2024-03-06T06:28:40;100631.91;;;-0.03;93.01
38806;BME280;25635;51.146;17.162;2024-03-06T06:31:27;100635.83;;;0.01;92.99
38806;BME280;25635;51.146;17.162;2024-03-06T06:34:19;100638.74;;;0.06;93.15
38806;BME280;25635;51.146;17.162;2024-03-06T06:37:05;100640.37;;;0.12;93.22
38806;BME280;25635;51.146;17.162;2024-03-06T06:40:08;100642.15;;;0.17;93.50
38806;BME280;25635;51.146;17.162;2024-03-06T06:42:54;100645.31;;;0.24;93.40
38806;BME280;25635;51.146;17.162;2024-03-06T06:45:48;100644.71;;;0.30;93.65
38806;BME280;25635;51.146;17.162;2024-03-06T06:48:37;100645.98;;;0.40;93.71
38806;BME280;25635;51.146;17.162;2024-03-06T06:51:25;100647.88;;;0.49;93.80
38806;BME280;25635;51.146;17.162;2024-03-06T06:54:16;100644.45;;;0.58;93.64
38806;BME280;25635;51.146;17.162;2024-03-06T06:57:02;100646.20;;;0.68;93.99
38806;BME280;25635;51.146;17.162;2024-03-06T06:59:50;100641.79;;;0.73;94.05
38806;BME280;25635;51.146;17.162;2024-03-06T07:02:38;100645.90;;;0.77;93.91
38806;BME280;25635;51.146;17.162;2024-03-06T07:05:25;100641.27;;;0.82;94.21
38806;BME280;25635;51.146;17.162;2024-03-06T07:08:11;100644.52;;;0.90;94.54
38806;BME280;25635;51.146;17.162;2024-03-06T07:11:04;100645.65;;;0.98;94.49
38806;BME280;25635;51.146;17.162;2024-03-06T07:13:53;100649.09;;;1.08;94.64
38806;BME280;25635;51.146;17.162;2024-03-06T07:16:42;100650.96;;;1.15;94.62
38806;BME280;25635;51.146;17.162;2024-03-06T07:19:28;100652.23;;;1.28;94.98
38806;BME280;25635;51.146;17.162;2024-03-06T07:22:03;100653.91;;;1.36;94.32
38806;BME280;25635;51.146;17.162;2024-03-06T07:24:49;100654.86;;;1.43;94.19
38806;BME280;25635;51.146;17.162;2024-03-06T07:27:23;100657.14;;;1.53;94.35
38806;BME280;25635;51.146;17.162;2024-03-06T07:30:10;100656.66;;;1.65;94.14
38806;BME280;25635;51.146;17.162;2024-03-06T07:32:56;100660.95;;;1.74;93.96
38806;BME280;25635;51.146;17.162;2024-03-06T07:35:42;100660.64;;;1.84;94.10
38806;BME280;25635;51.146;17.162;2024-03-06T07:38:34;100659.41;;;1.94;94.07
38806;BME280;25635;51.146;17.162;2024-03-06T07:41:45;100659.02;;;2.02;94.21
38806;BME280;25635;51.146;17.162;2024-03-06T07:44:31;100664.94;;;2.10;93.91
38806;BME280;25635;51.146;17.162;2024-03-06T07:47:20;100667.26;;;2.17;93.83
38806;BME280;25635;51.146;17.162;2024-03-06T07:50:02;100670.01;;;2.28;94.12
38806;BME280;25635;51.146;17.162;2024-03-06T07:52:49;100667.96;;;2.39;94.24
38806;BME280;25635;51.146;17.162;2024-03-06T07:55:39;100664.71;;;2.51;94.06
38806;BME280;25635;51.146;17.162;2024-03-06T07:58:32;100660.52;;;2.65;94.36
38806;BME280;25635;51.146;17.162;2024-03-06T08:01:14;100664.38;;;2.78;93.57
38806;BME280;25635;51.146;17.162;2024-03-06T08:04:00;100669.53;;;2.89;93.12
38806;BME280;25635;51.146;17.162;2024-03-06T08:06:51;100672.42;;;2.99;93.09
38806;BME280;25635;51.146;17.162;2024-03-06T08:09:56;100674.36;;;3.12;92.87
38806;BME280;25635;51.146;17.162;2024-03-06T08:12:44;100674.15;;;3.23;92.61
38806;BME280;25635;51.146;17.162;2024-03-06T08:15:30;100673.67;;;3.36;93.02
38806;BME280;25635;51.146;17.162;2024-03-06T08:18:17;100680.08;;;3.49;92.68
38806;BME280;25635;51.146;17.162;2024-03-06T08:21:03;100674.08;;;3.62;92.04
38806;BME280;25635;51.146;17.162;2024-03-06T08:24:03;100674.80;;;3.76;92.48
38806;BME280;25635;51.146;17.162;2024-03-06T08:26:53;100668.70;;;3.94;91.86
38806;BME280;25635;51.146;17.162;2024-03-06T08:29:39;100673.45;;;4.09;91.75
38806;BME280;25635;51.146;17.162;2024-03-06T08:32:25;100672.33;;;4.27;91.22
38806;BME280;25635;51.146;17.162;2024-03-06T08:35:12;100671.30;;;4.42;90.39
38806;BME280;25635;51.146;17.162;2024-03-06T08:37:59;100669.20;;;4.54;89.72
38806;BME280;25635;51.146;17.162;2024-03-06T08:40:48;100667.07;;;4.66;89.69
38806;BME280;25635;51.146;17.162;2024-03-06T08:43:34;100669.13;;;4.80;89.31
38806;BME280;25635;51.146;17.162;2024-03-06T08:46:20;100672.02;;;4.94;89.15
38806;BME280;25635;51.146;17.162;2024-03-06T08:49:07;100673.61;;;5.12;89.14
38806;BME280;25635;51.146;17.162;2024-03-06T08:51:56;100670.10;;;5.34;89.57
38806;BME280;25635;51.146;17.162;2024-03-06T08:54:42;100670.55;;;5.56;89.20
38806;BME280;25635;51.146;17.162;2024-03-06T08:57:29;100670.58;;;5.74;88.59
38806;BME280;25635;51.146;17.162;2024-03-06T09:00:16;100667.96;;;5.91;88.41
38806;BME280;25635;51.146;17.162;2024-03-06T09:03:07;100671.90;;;6.07;86.70
38806;BME280;25635;51.146;17.162;2024-03-06T09:05:58;100675.71;;;6.17;83.89
38806;BME280;25635;51.146;17.162;2024-03-06T09:08:44;100674.77;;;6.22;84.37
38806;BME280;25635;51.146;17.162;2024-03-06T09:12:01;100678.70;;;6.40;84.60
38806;BME280;25635;51.146;17.162;2024-03-06T09:14:51;100674.13;;;6.58;83.94
38806;BME280;25635;51.146;17.162;2024-03-06T09:17:38;100670.17;;;6.71;83.25
38806;BME280;25635;51.146;17.162;2024-03-06T09:20:05;100670.70;;;6.83;83.13
38806;BME280;25635;51.146;17.162;2024-03-06T09:22:57;100669.22;;;7.00;82.65
38806;BME280;25635;51.146;17.162;2024-03-06T09:25:43;100671.50;;;7.15;80.80
38806;BME280;25635;51.146;17.162;2024-03-06T09:28:29;100668.73;;;7.29;81.94
38806;BME280;25635;51.146;17.162;2024-03-06T09:31:37;100675.66;;;7.42;79.55
38806;BME280;25635;51.146;17.162;2024-03-06T09:34:23;100676.35;;;7.55;79.26
38806;BME280;25635;51.146;17.162;2024-03-06T09:37:16;100679.23;;;7.63;79.01
38806;BME280;25635;51.146;17.162;2024-03-06T09:40:02;100676.40;;;7.75;78.86
38806;BME280;25635;51.146;17.162;2024-03-06T09:42:56;100677.38;;;7.84;79.09
38806;BME280;25635;51.146;17.162;2024-03-06T09:45:45;100676.14;;;7.99;79.66
38806;BME280;25635;51.146;17.162;2024-03-06T09:48:34;100681.27;;;8.09;76.97
38806;BME280;25635;51.146;17.162;2024-03-06T09:51:52;100685.01;;;8.19;76.45
38806;BME280;25635;51.146;17.162;2024-03-06T09:54:43;100687.34;;;8.26;74.81
38806;BME280;25635;51.146;17.162;2024-03-06T09:57:30;100689.71;;;8.39;76.14
38806;BME280;25635;51.146;17.162;2024-03-06T10:00:19;100692.58;;;8.44;74.76
38806;BME280;25635;51.146;17.162;2024-03-06T10:03:20;100698.92;;;8.37;71.03
38806;BME280;25635;51.146;17.162;2024-03-06T10:06:10;100699.68;;;8.26;72.00
38806;BME280;25635;51.146;17.162;2024-03-06T10:09:03;100701.72;;;8.22;72.12
38806;BME280;25635;51.146;17.162;2024-03-06T10:11:50;100701.05;;;8.07;70.40
38806;BME280;25635;51.146;17.162;2024-03-06T10:14:36;100697.48;;;7.97;71.18
38806;BME280;25635;51.146;17.162;2024-03-06T10:17:29;100695.35;;;7.94;73.68
38806;BME280;25635;51.146;17.162;2024-03-06T10:20:22;100696.65;;;8.01;73.50
38806;BME280;25635;51.146;17.162;2024-03-06T10:23:10;100699.80;;;8.03;72.85
38806;BME280;25635;51.146;17.162;2024-03-06T10:25:56;100708.55;;;7.93;72.94
38806;BME280;25635;51.146;17.162;2024-03-06T10:28:45;100709.85;;;7.85;72.42
38806;BME280;25635;51.146;17.162;2024-03-06T10:31:31;100713.05;;;7.77;72.50
38806;BME280;25635;51.146;17.162;2024-03-06T10:34:17;100714.16;;;7.67;72.49
38806;BME280;25635;51.146;17.162;2024-03-06T10:36:44;100713.88;;;7.58;72.60
38806;BME280;25635;51.146;17.162;2024-03-06T10:39:30;100712.39;;;7.50;73.23
38806;BME280;25635;51.146;17.162;2024-03-06T10:42:19;100720.27;;;7.43;73.70
38806;BME280;25635;51.146;17.162;2024-03-06T10:45:05;100721.23;;;7.37;73.28
38806;BME280;25635;51.146;17.162;2024-03-06T10:47:53;100724.98;;;7.19;72.92
38806;BME280;25635;51.146;17.162;2024-03-06T10:50:42;100723.89;;;7.03;73.78
38806;BME280;25635;51.146;17.162;2024-03-06T10:53:15;100718.74;;;6.96;75.29
38806;BME280;25635;51.146;17.162;2024-03-06T10:56:01;100719.30;;;6.99;75.83
38806;BME280;25635;51.146;17.162;2024-03-06T10:58:50;100726.88;;;6.95;75.39
38806;BME280;25635;51.146;17.162;2024-03-06T11:01:37;100727.20;;;6.82;74.90
38806;BME280;25635;51.146;17.162;2024-03-06T11:04:03;100723.08;;;6.74;75.85
38806;BME280;25635;51.146;17.162;2024-03-06T11:06:50;100723.05;;;6.73;76.32
38806;BME280;25635;51.146;17.162;2024-03-06T11:09:37;100721.29;;;6.70;75.22
38806;BME280;25635;51.146;17.162;2024-03-06T11:12:38;100722.66;;;6.70;76.49
38806;BME280;25635;51.146;17.162;2024-03-06T11:15:37;100721.54;;;6.75;75.98
38806;BME280;25635;51.146;17.162;2024-03-06T11:24:21;100714.76;;;6.74;76.19
38806;BME280;25635;51.146;17.162;2024-03-06T11:27:07;100714.33;;;6.79;75.52
38806;BME280;25635;51.146;17.162;2024-03-06T11:30:11;100714.73;;;6.83;75.24
38806;BME280;25635;51.146;17.162;2024-03-06T11:32:58;100713.63;;;6.89;75.32
38806;BME280;25635;51.146;17.162;2024-03-06T11:39:05;100709.41;;;6.98;73.96
38806;BME280;25635;51.146;17.162;2024-03-06T11:41:52;100708.52;;;6.97;74.05
38806;BME280;25635;51.146;17.162;2024-03-06T11:44:28;100707.79;;;6.94;73.86
38806;BME280;25635;51.146;17.162;2024-03-06T11:47:15;100708.52;;;6.97;74.22
38806;BME280;25635;51.146;17.162;2024-03-06T11:50:01;100705.14;;;7.02;73.72
38806;BME280;25635;51.146;17.162;2024-03-06T11:52:47;100699.70;;;6.98;73.87
38806;BME280;25635;51.146;17.162;2024-03-06T11:55:33;100700.42;;;7.00;73.39
38806;BME280;25635;51.146;17.162;2024-03-06T11:58:19;100696.81;;;7.01;73.53
38806;BME280;25635;51.146;17.162;2024-03-06T12:01:14;100696.85;;;7.04;73.30
38806;BME280;25635;51.146;17.162;2024-03-06T12:05:01;100694.13;;;7.07;73.76
38806;BME280;25635;51.146;17.162;2024-03-06T12:07:49;100695.37;;;7.10;72.53
38806;BME280;25635;51.146;17.162;2024-03-06T12:10:18;100692.06;;;7.10;72.79
38806;BME280;25635;51.146;17.162;2024-03-06T12:13:29;100695.70;;;7.08;71.42
38806;BME280;25635;51.146;17.162;2024-03-06T12:16:15;100690.61;;;7.04;72.56
38806;BME280;25635;51.146;17.162;2024-03-06T12:19:01;100693.86;;;7.01;72.42
38806;BME280;25635;51.146;17.162;2024-03-06T12:21:48;100696.02;;;6.95;71.66
38806;BME280;25635;51.146;17.162;2024-03-06T12:24:34;100695.56;;;6.88;72.45
38806;BME280;25635;51.146;17.162;2024-03-06T12:27:29;100695.31;;;6.82;72.66
38806;BME280;25635;51.146;17.162;2024-03-06T12:30:28;100690.92;;;6.79;72.60
38806;BME280;25635;51.146;17.162;2024-03-06T12:33:16;100693.98;;;6.75;72.21
38806;BME280;25635;51.146;17.162;2024-03-06T12:36:07;100688.88;;;6.70;72.23
38806;BME280;25635;51.146;17.162;2024-03-06T12:39:02;100693.00;;;6.67;72.62
38806;BME280;25635;51.146;17.162;2024-03-06T12:41:51;100695.38;;;6.64;72.65
38806;BME280;25635;51.146;17.162;2024-03-06T12:44:37;100697.05;;;6.60;72.51
38806;BME280;25635;51.146;17.162;2024-03-06T12:47:23;100691.23;;;6.54;73.06
38806;BME280;25635;51.146;17.162;2024-03-06T12:50:09;100693.98;;;6.53;73.10
38806;BME280;25635;51.146;17.162;2024-03-06T12:52:55;100693.05;;;6.48;73.77
38806;BME280;25635;51.146;17.162;2024-03-06T12:56:00;100694.73;;;6.46;73.97
38806;BME280;25635;51.146;17.162;2024-03-06T12:58:46;100693.35;;;6.46;74.27
38806;BME280;25635;51.146;17.162;2024-03-06T13:01:34;100694.58;;;6.46;74.11
38806;BME280;25635;51.146;17.162;2024-03-06T13:04:20;100696.20;;;6.40;74.09
38806;BME280;25635;51.146;17.162;2024-03-06T13:06:46;100697.70;;;6.37;74.27
38806;BME280;25635;51.146;17.162;2024-03-06T13:09:19;100697.61;;;6.31;74.22
38806;BME280;25635;51.146;17.162;2024-03-06T13:11:46;100695.94;;;6.25;74.56
38806;BME280;25635;51.146;17.162;2024-03-06T13:14:28;100698.17;;;6.24;74.91
38806;BME280;25635;51.146;17.162;2024-03-06T13:17:03;100695.93;;;6.25;74.87
38806;BME280;25635;51.146;17.162;2024-03-06T13:19:45;100698.02;;;6.25;75.24
38806;BME280;25635;51.146;17.162;2024-03-06T13:22:31;100699.45;;;6.27;74.97
38806;BME280;25635;51.146;17.162;2024-03-06T13:25:24;100694.34;;;6.23;74.69
38806;BME280;25635;51.146;17.162;2024-03-06T13:28:10;100694.42;;;6.18;75.12
38806;BME280;25635;51.146;17.162;2024-03-06T13:30:44;100696.17;;;6.19;75.66
38806;BME280;25635;51.146;17.162;2024-03-06T13:33:30;100698.09;;;6.19;75.89
38806;BME280;25635;51.146;17.162;2024-03-06T13:36:16;100698.67;;;6.14;75.23
38806;BME280;25635;51.146;17.162;2024-03-06T13:39:02;100699.56;;;6.04;75.67
38806;BME280;25635;51.146;17.162;2024-03-06T13:41:55;100696.09;;;5.95;75.57
38806;BME280;25635;51.146;17.162;2024-03-06T13:44:41;100694.55;;;5.89;75.95
38806;BME280;25635;51.146;17.162;2024-03-06T13:47:27;100694.94;;;5.82;76.20
38806;BME280;25635;51.146;17.162;2024-03-06T13:53:18;100689.23;;;5.82;77.26
38806;BME280;25635;51.146;17.162;2024-03-06T13:56:04;100694.05;;;5.80;77.57
38806;BME280;25635;51.146;17.162;2024-03-06T13:58:50;100693.86;;;5.80;77.78
38806;BME280;25635;51.146;17.162;2024-03-06T14:01:36;100693.32;;;5.79;77.66
38806;BME280;25635;51.146;17.162;2024-03-06T14:04:44;100693.27;;;5.77;77.71
38806;BME280;25635;51.146;17.162;2024-03-06T14:07:23;100693.97;;;5.77;77.89
38806;BME280;25635;51.146;17.162;2024-03-06T14:10:10;100698.93;;;5.73;77.92
38806;BME280;25635;51.146;17.162;2024-03-06T14:12:56;100698.83;;;5.69;77.90
38806;BME280;25635;51.146;17.162;2024-03-06T14:15:43;100700.27;;;5.63;77.81
38806;BME280;25635;51.146;17.162;2024-03-06T14:18:29;100699.80;;;5.57;77.96
38806;BME280;25635;51.146;17.162;2024-03-06T14:21:15;100702.15;;;5.53;78.15
38806;BME280;25635;51.146;17.162;2024-03-06T14:24:04;100699.64;;;5.49;77.85
38806;BME280;25635;51.146;17.162;2024-03-06T14:26:32;100703.26;;;5.47;78.49
38806;BME280;25635;51.146;17.162;2024-03-06T14:29:19;100708.05;;;5.45;78.48
38806;BME280;25635;51.146;17.162;2024-03-06T14:32:05;100710.71;;;5.40;78.53
38806;BME280;25635;51.146;17.162;2024-03-06T14:34:59;100710.48;;;5.31;78.27
38806;BME280;25635;51.146;17.162;2024-03-06T14:37:45;100713.77;;;5.22;78.84
38806;BME280;25635;51.146;17.162;2024-03-06T14:40:31;100717.39;;;5.14;79.20
38806;BME280;25635;51.146;17.162;2024-03-06T14:43:18;100718.61;;;5.07;79.94